createdAt,value
2019-03-19T00:02:30.555Z,5.90
2019-03-19T00:05:03.170Z,5.90
2019-03-19T00:07:35.176Z,5.90
2019-03-19T00:10:07.505Z,5.90
2019-03-19T00:12:39.654Z,5.90
2019-03-19T00:15:11.462Z,5.70
2019-03-19T00:17:43.033Z,5.90
2019-03-19T00:20:14.464Z,5.90
2019-03-19T00:22:46.279Z,5.90
2019-03-19T00:25:29.136Z,5.90
2019-03-19T00:27:51.265Z,5.90
2019-03-19T00:30:22.646Z,5.90
2019-03-19T00:32:54.763Z,5.90
2019-03-19T00:35:26.027Z,5.90
2019-03-19T00:37:57.758Z,5.90
2019-03-19T00:40:29.162Z,6.00
2019-03-19T00:43:00.965Z,5.90
2019-03-19T00:45:32.328Z,5.90
2019-03-19T00:48:04.328Z,5.90
2019-03-19T00:50:35.584Z,5.90
2019-03-19T00:53:07.075Z,5.80
2019-03-19T00:55:40.917Z,5.80
2019-03-19T00:58:11.706Z,5.70
2019-03-19T01:00:42.899Z,5.70
2019-03-19T01:03:14.282Z,5.60
2019-03-19T01:05:45.658Z,5.60
2019-03-19T01:08:17.106Z,5.60
2019-03-19T01:10:48.440Z,5.50
2019-03-19T01:13:20.010Z,5.50
2019-03-19T01:15:51.298Z,5.50
2019-03-19T01:18:23.756Z,5.40
2019-03-19T01:20:55.026Z,5.40
2019-03-19T01:23:26.829Z,5.40
2019-03-19T01:25:58.231Z,5.40
2019-03-19T01:28:29.891Z,5.40
2019-03-19T01:31:01.437Z,5.40
2019-03-19T01:33:33.142Z,5.40
2019-03-19T01:36:05.285Z,5.40
2019-03-19T01:38:36.740Z,5.40
2019-03-19T01:41:08.270Z,5.30
2019-03-19T01:43:39.858Z,5.20
2019-03-19T01:46:11.075Z,5.20
2019-03-19T01:48:42.557Z,5.10
2019-03-19T01:51:13.945Z,5.00
2019-03-19T01:53:45.457Z,5.00
2019-03-19T01:56:16.865Z,4.90
2019-03-19T01:58:48.273Z,4.90
2019-03-19T02:01:19.701Z,4.80
2019-03-19T02:03:51.465Z,4.80
2019-03-19T02:06:24.004Z,4.70
2019-03-19T02:08:55.419Z,4.70
2019-03-19T02:11:26.982Z,4.60
2019-03-19T02:13:58.417Z,4.60
2019-03-19T02:16:30.205Z,4.60
2019-03-19T02:19:03.277Z,4.50
2019-03-19T02:21:34.829Z,4.50
2019-03-19T02:24:06.273Z,4.50
2019-03-19T02:26:37.801Z,4.50
2019-03-19T02:29:10.857Z,4.60
2019-03-19T02:31:42.016Z,4.60
2019-03-19T02:34:13.504Z,4.70
2019-03-19T02:36:44.953Z,4.70
2019-03-19T02:39:16.700Z,4.70
2019-03-19T02:41:47.992Z,4.80
2019-03-19T02:44:19.473Z,4.90
2019-03-19T02:46:50.836Z,4.90
2019-03-19T02:49:22.218Z,4.90
2019-03-19T02:51:53.647Z,5.00
2019-03-19T02:54:25.486Z,5.00
2019-03-19T02:56:57.081Z,5.10
2019-03-19T02:59:30.237Z,5.10
2019-03-19T03:02:04.054Z,5.10
2019-03-19T03:04:35.500Z,5.20
2019-03-19T03:07:07.013Z,5.20
2019-03-19T03:09:38.582Z,5.20
2019-03-19T03:12:10.054Z,5.20
2019-03-19T03:14:41.493Z,5.20
2019-03-19T03:17:12.854Z,5.30
2019-03-19T03:19:45.247Z,5.30
2019-03-19T03:22:16.667Z,5.30
2019-03-19T03:24:48.070Z,5.30
2019-03-19T03:27:19.434Z,5.30
2019-03-19T03:29:51.060Z,5.30
2019-03-19T03:32:22.395Z,5.30
2019-03-19T03:34:53.694Z,5.30
2019-03-19T03:37:26.019Z,5.40
2019-03-19T03:39:57.660Z,5.40
2019-03-19T03:42:29.418Z,5.40
2019-03-19T03:45:01.169Z,5.40
2019-03-19T03:47:32.761Z,5.40
2019-03-19T03:50:04.586Z,5.40
2019-03-19T03:52:36.774Z,5.40
2019-03-19T03:55:09.074Z,5.40
2019-03-19T03:57:40.554Z,5.40
2019-03-19T04:00:13.743Z,5.50
2019-03-19T04:02:45.168Z,5.50
2019-03-19T04:05:17.736Z,5.50
2019-03-19T04:07:49.021Z,5.50
2019-03-19T04:10:20.816Z,5.50
2019-03-19T04:12:53.667Z,5.50
2019-03-19T04:15:24.981Z,5.50
2019-03-19T04:17:56.669Z,5.50
2019-03-19T04:20:27.898Z,5.50
2019-03-19T04:22:59.165Z,5.50
2019-03-19T04:25:31.990Z,5.50
2019-03-19T04:28:03.324Z,5.50
2019-03-19T04:30:35.299Z,5.50
2019-03-19T04:33:06.688Z,5.50
2019-03-19T04:35:37.984Z,5.50
2019-03-19T04:38:09.186Z,5.50
2019-03-19T04:40:40.661Z,5.50
2019-03-19T04:43:12.070Z,5.50
2019-03-19T04:45:43.574Z,5.40
2019-03-19T04:48:15.049Z,5.40
2019-03-19T04:50:47.111Z,5.30
2019-03-19T04:53:18.386Z,5.30
2019-03-19T04:55:49.957Z,5.20
2019-03-19T04:58:21.269Z,5.20
2019-03-19T05:00:52.581Z,5.10
2019-03-19T05:03:23.929Z,5.10
2019-03-19T05:05:55.405Z,5.00
2019-03-19T05:08:28.084Z,5.00
2019-03-19T05:11:00.964Z,5.00
2019-03-19T05:13:32.517Z,5.00
2019-03-19T05:16:04.779Z,5.00
2019-03-19T05:18:36.319Z,5.00
2019-03-19T05:21:07.833Z,5.10
2019-03-19T05:23:39.290Z,5.10
2019-03-19T05:26:11.320Z,5.10
2019-03-19T05:28:44.203Z,5.20
2019-03-19T05:31:17.033Z,5.20
2019-03-19T05:33:48.758Z,5.20
2019-03-19T05:36:20.164Z,5.30
2019-03-19T05:38:53.852Z,5.30
2019-03-19T05:41:27.056Z,5.40
2019-03-19T05:43:58.274Z,5.70
2019-03-19T05:46:30.321Z,5.50
2019-03-19T05:49:01.783Z,5.60
2019-03-19T05:51:33.313Z,5.60
2019-03-19T05:54:04.585Z,5.70
2019-03-19T05:56:36.219Z,5.70
2019-03-19T05:59:07.679Z,5.70
2019-03-19T06:01:39.047Z,5.80
2019-03-19T06:04:10.431Z,7.30
2019-03-19T06:06:42.013Z,5.90
2019-03-19T06:09:13.255Z,5.90
2019-03-19T07:02:31.938Z,9.70
2019-03-19T07:05:03.344Z,10.90
2019-03-19T07:07:34.837Z,10.40
2019-03-19T07:10:06.606Z,10.60
2019-03-19T07:12:37.977Z,10.90
2019-03-19T07:15:11.113Z,11.20
2019-03-19T07:17:42.588Z,11.50
2019-03-19T07:20:14.645Z,11.70
2019-03-19T07:22:45.859Z,11.90
2019-03-19T07:25:17.460Z,12.10
2019-03-19T07:27:48.736Z,12.30
2019-03-19T07:30:20.200Z,12.60
2019-03-19T07:32:51.588Z,12.80
2019-03-19T07:35:22.950Z,13.10
2019-03-19T07:37:54.420Z,13.20
2019-03-19T07:40:25.873Z,13.40
2019-03-19T07:42:58.083Z,13.50
2019-03-19T07:45:30.529Z,13.60
2019-03-19T07:48:01.954Z,13.70
2019-03-19T07:50:33.756Z,13.90
2019-03-19T07:53:05.137Z,14.00
2019-03-19T07:55:37.377Z,14.00
2019-03-19T07:58:08.818Z,14.00
2019-03-19T08:00:40.347Z,13.70
2019-03-19T08:03:16.105Z,13.50
2019-03-19T08:05:44.984Z,13.40
2019-03-19T08:08:16.284Z,13.40
2019-03-19T08:10:47.784Z,13.40
2019-03-19T08:13:19.361Z,13.30
2019-03-19T08:15:50.926Z,13.40
2019-03-19T08:18:23.377Z,13.50
2019-03-19T08:20:54.936Z,13.80
2019-03-19T08:23:26.435Z,14.10
2019-03-19T08:25:57.931Z,14.40
2019-03-19T08:28:29.487Z,14.60
2019-03-19T08:31:01.033Z,14.50
2019-03-19T08:33:32.749Z,14.50
2019-03-19T08:36:09.379Z,14.70
2019-03-19T08:38:37.460Z,14.80
2019-03-19T08:41:09.086Z,14.60
2019-03-19T08:43:40.553Z,14.40
2019-03-19T08:46:12.096Z,14.10
2019-03-19T08:48:43.456Z,13.80
2019-03-19T08:51:14.802Z,13.40
2019-03-19T08:53:46.088Z,13.20
2019-03-19T08:56:18.185Z,13.10
2019-03-19T09:07:27.002Z,13.80
2019-03-19T09:09:58.386Z,14.00
2019-03-19T09:12:30.028Z,14.20
2019-03-19T09:15:01.568Z,14.30
2019-03-19T09:17:33.528Z,14.20
2019-03-19T09:23:15.366Z,13.90
2019-03-19T09:25:46.905Z,13.70
2019-03-19T09:28:18.617Z,13.80
2019-03-19T09:30:50.036Z,13.90
2019-03-19T09:33:21.590Z,14.00
2019-03-19T09:35:53.259Z,14.10
2019-03-19T09:44:58.002Z,14.10
2019-03-19T09:47:21.445Z,14.00
2019-03-19T09:58:48.128Z,13.50
2019-03-19T10:01:20.386Z,13.50
2019-03-19T10:03:51.977Z,13.50
2019-03-19T10:06:23.310Z,13.40
2019-03-19T10:08:54.564Z,13.40
2019-03-19T10:11:25.991Z,13.40
2019-03-19T10:13:59.997Z,13.50
2019-03-19T10:16:31.755Z,13.50
2019-03-19T10:19:03.063Z,13.50
2019-03-19T10:21:34.456Z,13.40
2019-03-19T10:24:07.340Z,13.30
2019-03-19T10:26:39.720Z,13.10
2019-03-19T10:29:11.140Z,13.00
2019-03-19T10:31:43.109Z,12.90
2019-03-19T10:34:14.505Z,12.90
2019-03-19T10:36:46.150Z,12.90
2019-03-19T10:39:17.628Z,12.90
2019-03-19T10:41:48.932Z,12.90
2019-03-19T10:44:21.398Z,12.80
2019-03-19T12:57:52.698Z,12.30
2019-03-19T13:00:33.526Z,12.00
2019-03-19T13:02:57.377Z,11.60
2019-03-19T13:05:28.715Z,11.20
2019-03-19T13:08:00.469Z,10.80
2019-03-19T13:10:31.974Z,10.40
2019-03-19T13:13:05.896Z,10.00
2019-03-19T13:15:37.417Z,9.70
2019-03-19T13:18:08.620Z,9.40
2019-03-19T13:20:40.120Z,9.20
2019-03-19T13:23:11.794Z,9.00
2019-03-19T13:25:43.093Z,8.90
2019-03-19T13:28:14.635Z,8.80
2019-03-19T13:30:46.540Z,8.80
2019-03-19T13:33:19.692Z,8.80
2019-03-19T13:35:52.780Z,8.80
2019-03-19T13:38:24.708Z,8.80
2019-03-19T13:40:57.934Z,8.80
2019-03-19T13:43:29.648Z,8.80
2019-03-19T13:46:01.345Z,8.80
2019-03-19T13:48:32.950Z,8.90
2019-03-19T13:51:04.532Z,8.90
2019-03-19T13:53:36.369Z,9.00
2019-03-19T13:56:07.962Z,9.10
2019-03-19T13:58:39.241Z,9.20
2019-03-19T14:01:10.726Z,9.20
2019-03-19T14:03:42.177Z,9.30
2019-03-19T14:06:13.674Z,9.40
2019-03-19T14:08:46.413Z,9.40
2019-03-19T14:11:17.866Z,9.40
2019-03-19T14:13:49.357Z,9.40
2019-03-19T14:16:21.037Z,9.50
2019-03-19T14:18:52.900Z,9.50
2019-03-19T14:21:24.227Z,9.50
2019-03-19T14:23:56.014Z,9.50
2019-03-19T14:26:27.561Z,9.50
2019-03-19T14:28:59.398Z,9.60
2019-03-19T14:31:33.445Z,9.50
2019-03-19T14:34:07.489Z,9.60
2019-03-19T14:36:39.073Z,9.70
2019-03-19T14:39:12.098Z,9.70
2019-03-19T14:41:45.599Z,9.80
2019-03-19T14:44:18.494Z,9.90
2019-03-19T14:46:52.093Z,10.00
2019-03-19T14:49:23.602Z,10.10
2019-03-19T14:51:55.973Z,10.00
2019-03-19T14:54:27.833Z,10.40
2019-03-19T14:57:02.734Z,10.10
2019-03-19T14:59:34.690Z,10.10
2019-03-19T15:02:06.299Z,9.80
2019-03-19T15:04:38.019Z,10.30
2019-03-19T15:07:10.997Z,10.10
2019-03-19T15:09:43.004Z,10.10
2019-03-19T15:12:16.771Z,10.00
2019-03-19T15:14:48.501Z,9.90
2019-03-19T15:17:20.119Z,9.90
2019-03-19T15:19:52.892Z,9.80
2019-03-19T15:22:32.417Z,9.70
2019-03-19T15:25:00.702Z,9.60
2019-03-19T15:27:32.947Z,9.60
2019-03-19T15:30:16.563Z,9.50
2019-03-19T15:32:51.363Z,9.40
2019-03-19T15:35:25.017Z,9.30
2019-03-19T15:37:56.653Z,9.30
2019-03-19T15:43:01.075Z,9.00
2019-03-19T15:48:06.138Z,9.50
2019-03-19T15:50:38.202Z,8.90
2019-03-19T15:53:09.512Z,9.00
2019-03-19T15:55:40.750Z,8.90
2019-03-19T15:58:13.249Z,8.90
2019-03-19T16:00:48.126Z,8.90
2019-03-19T16:03:19.782Z,8.80
2019-03-19T16:05:51.804Z,8.80
2019-03-19T16:08:24.421Z,8.70
2019-03-19T16:10:56.136Z,8.70
2019-03-19T16:13:27.649Z,8.60
2019-03-19T16:15:58.926Z,8.60
2019-03-19T16:18:30.642Z,8.50
2019-03-19T16:21:01.922Z,8.40
2019-03-19T16:23:33.880Z,8.40
2019-03-19T16:26:05.353Z,8.30
2019-03-19T16:28:37.593Z,8.20
2019-03-19T16:31:10.841Z,8.20
2019-03-19T16:33:43.146Z,8.10
2019-03-19T16:36:16.578Z,8.10
2019-03-19T16:38:48.290Z,8.10
2019-03-19T16:41:20.375Z,8.00
2019-03-19T16:43:51.963Z,8.00
2019-03-19T16:46:23.411Z,8.00
2019-03-19T16:48:55.043Z,7.90
2019-03-19T16:51:27.442Z,7.90
2019-03-19T16:54:05.901Z,7.90
2019-03-19T16:56:37.410Z,7.90
2019-03-19T16:59:08.705Z,7.80
2019-03-19T17:01:42.041Z,7.80
2019-03-19T17:04:13.772Z,7.80
2019-03-19T17:06:45.402Z,7.80
2019-03-19T17:09:17.177Z,7.30
2019-03-19T17:11:48.772Z,7.70
2019-03-19T17:14:20.286Z,7.70
2019-03-19T17:16:51.592Z,7.70
2019-03-19T17:19:22.998Z,7.60
2019-03-19T17:21:55.290Z,7.60
2019-03-19T17:27:00.670Z,7.40
2019-03-19T17:29:33.431Z,7.40
2019-03-19T17:32:12.487Z,7.30
2019-03-19T17:34:37.776Z,7.20
2019-03-19T17:37:09.030Z,7.10
2019-03-19T17:39:40.381Z,7.00
2019-03-19T17:42:11.722Z,6.90
2019-03-19T17:44:43.018Z,6.80
2019-03-19T17:49:47.828Z,6.80
2019-03-19T17:52:19.290Z,6.60
2019-03-19T17:54:51.037Z,6.50
2019-03-19T17:57:22.445Z,6.40
2019-03-19T17:59:55.962Z,6.30
2019-03-19T18:10:01.218Z,5.80
2019-03-19T18:17:34.463Z,5.90
2019-03-19T18:30:13.674Z,5.90
2019-03-19T18:37:47.704Z,5.50
2019-03-19T18:40:20.106Z,5.60
2019-03-19T18:45:26.274Z,6.50
2019-03-19T18:53:01.200Z,5.20
2019-03-19T19:00:35.071Z,5.10
2019-03-19T19:05:37.103Z,5.10
2019-03-19T19:10:39.757Z,5.20
2019-03-19T19:20:59.496Z,5.40
2019-03-19T19:28:29.634Z,5.80
2019-03-19T19:38:36.128Z,6.90
2019-03-19T19:41:08.984Z,6.20
2019-03-19T19:43:42.344Z,5.90
2019-03-19T20:04:04.897Z,5.90
2019-03-19T20:11:40.586Z,6.00
2019-03-19T20:19:22.569Z,5.80
2019-03-19T20:24:42.978Z,6.20
2019-03-19T20:27:15.758Z,5.70
2019-03-19T20:29:47.217Z,5.60
2019-03-19T20:34:49.601Z,5.40
2019-03-19T20:42:22.527Z,5.40
2019-03-19T20:50:03.463Z,5.30
2019-03-19T21:02:46.624Z,5.30
2019-03-19T21:05:18.025Z,5.10
2019-03-19T21:07:49.710Z,5.10
2019-03-19T21:10:21.375Z,5.60
2019-03-19T21:17:56.192Z,4.90
2019-03-19T21:30:41.748Z,4.80
2019-03-19T21:35:48.070Z,4.80
2019-03-19T21:43:29.401Z,4.30
2019-03-19T21:51:05.474Z,4.50
2019-03-19T21:53:36.941Z,4.60
2019-03-19T21:56:08.328Z,4.40
2019-03-19T21:58:40.977Z,4.20
2019-03-19T22:01:12.577Z,4.20
2019-03-19T22:06:16.545Z,4.10
2019-03-19T22:08:51.206Z,4.10
2019-03-19T22:24:17.170Z,3.90
2019-03-19T22:31:50.015Z,4.00
2019-03-19T22:36:52.239Z,3.50
2019-03-19T22:44:27.493Z,3.90
2019-03-19T22:46:59.865Z,4.30
2019-03-19T22:49:31.808Z,3.80
2019-03-19T22:52:03.277Z,3.90
2019-03-19T22:54:35.086Z,3.90
2019-03-19T22:57:06.549Z,4.00
2019-03-19T22:59:38.152Z,4.10
2019-03-19T23:07:16.274Z,4.40
2019-03-19T23:09:47.875Z,4.20
2019-03-19T23:14:53.696Z,3.90
2019-03-19T23:17:25.631Z,4.60
2019-03-19T23:22:30.130Z,3.90
2019-03-19T23:25:01.432Z,3.70
2019-03-19T23:27:33.914Z,3.50
2019-03-19T23:30:06.457Z,3.10
2019-03-19T23:32:38.622Z,3.30
2019-03-19T23:35:10.368Z,3.20
2019-03-19T23:37:41.790Z,3.40
2019-03-19T23:40:13.249Z,3.10
2019-03-19T23:42:45.925Z,3.40
2019-03-19T23:45:17.453Z,3.30
